sensor_id;sensor_type;location;lat;lon;timestamp;pressure;altitude;pressure_sealevel;temperature;humidity
60489;BME280;46331;49.252;8.904;2023-04-29T00:00:10;99407.78;;;10.95;100.00
60489;BME280;46331;49.252;8.904;2023-04-29T00:00:54;99399.81;;;10.95;100.00
60489;BME280;46331;49.252;8.904;2023-04-29T00:01:35;99395.56;;;10.94;100.00
60489;BME280;46331;49.252;8.904;2023-04-29T00:02:16;99400.06;;;10.94;100.00
60489;BME280;46331;49.252;8.904;2023-04-29T00:02:56;99397.16;;;10.95;100.00
60489;BME280;46331;49.252;8.904;2023-04-29T00:03:37;99400.84;;;10.94;100.00
60489;BME280;46331;49.252;8.904;2023-04-29T00:04:17;99398.19;;;10.94;100.00
60489;BME280;46331;49.252;8.904;2023-04-29T00:04:58;99400.31;;;10.92;100.00
60489;BME280;46331;49.252;8.904;2023-04-29T00:05:39;99391.00;;;10.89;100.00
60489;BME280;46331;49.252;8.904;2023-04-29T00:06:20;99401.34;;;10.91;100.00
60489;BME280;46331;49.252;8.904;2023-04-29T00:07:01;99397.09;;;10.90;100.00
60489;BME280;46331;49.252;8.904;2023-04-29T00:07:42;99401.06;;;10.87;100.00
60489;BME280;46331;49.252;8.904;2023-04-29T00:08:22;99395.75;;;10.87;100.00
60489;BME280;46331;49.252;8.904;2023-04-29T00:09:03;99402.34;;;10.85;100.00
60489;BME280;46331;49.252;8.904;2023-04-29T00:09:43;99394.88;;;10.82;100.00
60489;BME280;46331;49.252;8.904;2023-04-29T00:10:24;99399.63;;;10.80;100.00
60489;BME280;46331;49.252;8.904;2023-04-29T00:11:05;99403.06;;;10.80;100.00
60489;BME280;46331;49.252;8.904;2023-04-29T00:11:45;99405.97;;;10.79;100.00
60489;BME280;46331;49.252;8.904;2023-04-29T00:12:27;99397.72;;;10.75;100.00
60489;BME280;46331;49.252;8.904;2023-04-29T00:13:09;99396.34;;;10.72;100.00
60489;BME280;46331;49.252;8.904;2023-04-29T00:13:52;99398.47;;;10.70;100.00
60489;BME280;46331;49.252;8.904;2023-04-29T00:14:32;99397.09;;;10.68;100.00
60489;BME280;46331;49.252;8.904;2023-04-29T00:15:13;99390.41;;;10.65;100.00
60489;BME280;46331;49.252;8.904;2023-04-29T00:15:54;99399.19;;;10.66;100.00
60489;BME280;46331;49.252;8.904;2023-04-29T00:16:34;99399.97;;;10.66;100.00
60489;BME280;46331;49.252;8.904;2023-04-29T00:17:15;99401.59;;;10.67;100.00
60489;BME280;46331;49.252;8.904;2023-04-29T00:17:56;99393.41;;;10.69;100.00
60489;BME280;46331;49.252;8.904;2023-04-29T00:18:37;99397.09;;;10.68;100.00
60489;BME280;46331;49.252;8.904;2023-04-29T00:19:17;99398.47;;;10.70;100.00
60489;BME280;46331;49.252;8.904;2023-04-29T00:19:59;99404.31;;;10.72;100.00
60489;BME280;46331;49.252;8.904;2023-04-29T00:20:39;99395.56;;;10.72;100.00
60489;BME280;46331;49.252;8.904;2023-04-29T00:21:20;99396.91;;;10.74;100.00
60489;BME280;46331;49.252;8.904;2023-04-29T00:22:00;99401.94;;;10.76;100.00
60489;BME280;46331;49.252;8.904;2023-04-29T00:22:41;99401.16;;;10.76;100.00
60489;BME280;46331;49.252;8.904;2023-04-29T00:23:21;99396.91;;;10.74;100.00
60489;BME280;46331;49.252;8.904;2023-04-29T00:24:02;99401.16;;;10.76;100.00
60489;BME280;46331;49.252;8.904;2023-04-29T00:24:42;99398.50;;;10.76;100.00
60489;BME280;46331;49.252;8.904;2023-04-29T00:25:23;99403.03;;;10.75;100.00
60489;BME280;46331;49.252;8.904;2023-04-29T00:26:04;99405.44;;;10.77;100.00
60489;BME280;46331;49.252;8.904;2023-04-29T00:26:44;99391.91;;;10.78;100.00
60489;BME280;46331;49.252;8.904;2023-04-29T00:27:25;99396.41;;;10.78;100.00
60489;BME280;46331;49.252;8.904;2023-04-29T00:28:06;99400.13;;;10.77;100.00
60489;BME280;46331;49.252;8.904;2023-04-29T00:28:47;99398.50;;;10.76;100.00
60489;BME280;46331;49.252;8.904;2023-04-29T00:29:27;99391.84;;;10.73;100.00
60489;BME280;46331;49.252;8.904;2023-04-29T00:30:08;99395.56;;;10.72;100.00
60489;BME280;46331;49.252;8.904;2023-04-29T00:30:49;99395.22;;;10.68;100.00
60489;BME280;46331;49.252;8.904;2023-04-29T00:31:29;99392.81;;;10.67;100.00
60489;BME280;46331;49.252;8.904;2023-04-29T00:32:11;99393.66;;;10.67;100.00
60489;BME280;46331;49.252;8.904;2023-04-29T00:32:52;99396.28;;;10.67;100.00
60489;BME280;46331;49.252;8.904;2023-04-29T00:33:33;99400.78;;;10.67;100.00
60489;BME280;46331;49.252;8.904;2023-04-29T00:34:13;99397.34;;;10.66;100.00
60489;BME280;46331;49.252;8.904;2023-04-29T00:34:54;99394.69;;;10.66;100.00
60489;BME280;46331;49.252;8.904;2023-04-29T00:35:34;99397.88;;;10.68;100.00
60489;BME280;46331;49.252;8.904;2023-04-29T00:36:15;99397.09;;;10.68;100.00
60489;BME280;46331;49.252;8.904;2023-04-29T00:36:56;99392.56;;;10.68;100.00
60489;BME280;46331;49.252;8.904;2023-04-29T00:37:36;99396.53;;;10.66;100.00
60489;BME280;46331;49.252;8.904;2023-04-29T00:38:17;99391.47;;;10.64;100.00
60489;BME280;46331;49.252;8.904;2023-04-29T00:38:57;99393.41;;;10.69;100.00
60489;BME280;46331;49.252;8.904;2023-04-29T00:39:38;99400.53;;;10.68;100.00
60489;BME280;46331;49.252;8.904;2023-04-29T00:40:19;99399.50;;;10.69;100.00
60489;BME280;46331;49.252;8.904;2023-04-29T00:41:00;99391.28;;;10.71;100.00
60489;BME280;46331;49.252;8.904;2023-04-29T00:41:40;99392.81;;;10.67;100.00
60489;BME280;46331;49.252;8.904;2023-04-29T00:42:21;99397.09;;;10.68;100.00
60489;BME280;46331;49.252;8.904;2023-04-29T00:43:02;99402.38;;;10.68;100.00
60489;BME280;46331;49.252;8.904;2023-04-29T00:43:43;99408.50;;;10.68;100.00
60489;BME280;46331;49.252;8.904;2023-04-29T00:44:23;99401.03;;;10.65;100.00
60489;BME280;46331;49.252;8.904;2023-04-29T00:45:05;99408.97;;;10.65;100.00
60489;BME280;46331;49.252;8.904;2023-04-29T00:45:45;99404.78;;;10.69;100.00
60489;BME280;46331;49.252;8.904;2023-04-29T00:46:26;99404.56;;;10.71;100.00
60489;BME280;46331;49.252;8.904;2023-04-29T00:47:07;99412.25;;;10.72;100.00
60489;BME280;46331;49.252;8.904;2023-04-29T00:47:50;99405.09;;;10.73;100.00
60489;BME280;46331;49.252;8.904;2023-04-29T00:48:31;99405.09;;;10.73;100.00
60489;BME280;46331;49.252;8.904;2023-04-29T00:49:12;99409.13;;;10.76;100.00
60489;BME280;46331;49.252;8.904;2023-04-29T00:49:56;99408.63;;;10.79;100.00
60489;BME280;46331;49.252;8.904;2023-04-29T00:50:36;99405.47;;;10.82;100.00
60489;BME280;46331;49.252;8.904;2023-04-29T00:51:17;99408.94;;;10.82;100.00
60489;BME280;46331;49.252;8.904;2023-04-29T00:51:58;99412.47;;;10.88;100.00
60489;BME280;46331;49.252;8.904;2023-04-29T00:52:38;99405.03;;;10.90;100.00
60489;BME280;46331;49.252;8.904;2023-04-29T00:53:20;99415.16;;;10.93;100.00
60489;BME280;46331;49.252;8.904;2023-04-29T00:54:03;99411.75;;;10.98;100.00
60489;BME280;46331;49.252;8.904;2023-04-29T00:54:44;99412.09;;;11.01;100.00
60489;BME280;46331;49.252;8.904;2023-04-29T00:55:25;99409.50;;;11.06;100.00
60489;BME280;46331;49.252;8.904;2023-04-29T00:56:06;99407.72;;;11.12;100.00
60489;BME280;46331;49.252;8.904;2023-04-29T00:56:49;99402.19;;;11.19;100.00
60489;BME280;46331;49.252;8.904;2023-04-29T00:57:29;99405.97;;;11.23;100.00
60489;BME280;46331;49.252;8.904;2023-04-29T00:58:10;99399.09;;;11.27;100.00
60489;BME280;46331;49.252;8.904;2023-04-29T00:58:51;99401.00;;;11.32;100.00
60489;BME280;46331;49.252;8.904;2023-04-29T00:59:32;99409.28;;;11.35;100.00
60489;BME280;46331;49.252;8.904;2023-04-29T01:00:14;99405.06;;;11.39;100.00
60489;BME280;46331;49.252;8.904;2023-04-29T01:00:55;99406.72;;;11.45;100.00
60489;BME280;46331;49.252;8.904;2023-04-29T01:01:36;99402.25;;;11.51;100.00
60489;BME280;46331;49.252;8.904;2023-04-29T01:02:17;99407.88;;;11.55;100.00
60489;BME280;46331;49.252;8.904;2023-04-29T01:02:58;99408.19;;;11.58;100.00
60489;BME280;46331;49.252;8.904;2023-04-29T01:03:39;99402.88;;;11.58;100.00
60489;BME280;46331;49.252;8.904;2023-04-29T01:04:19;99405.81;;;11.62;100.00
60489;BME280;46331;49.252;8.904;2023-04-29T01:05:00;99409.59;;;11.66;100.00
60489;BME280;46331;49.252;8.904;2023-04-29T01:05:42;99405.84;;;11.67;100.00
60489;BME280;46331;49.252;8.904;2023-04-29T01:08:43;99409.66;;;11.76;100.00
60489;BME280;46331;49.252;8.904;2023-04-29T01:10:44;99404.66;;;11.80;100.00
60489;BME280;46331;49.252;8.904;2023-04-29T01:11:34;99409.72;;;11.81;100.00
60489;BME280;46331;49.252;8.904;2023-04-29T01:13:09;99406.31;;;11.86;100.00
60489;BME280;46331;49.252;8.904;2023-04-29T01:13:57;99402.56;;;11.87;100.00
60489;BME280;46331;49.252;8.904;2023-04-29T01:14:42;99400.47;;;11.89;100.00
60489;BME280;46331;49.252;8.904;2023-04-29T01:15:32;99416.22;;;11.96;100.00
60489;BME280;46331;49.252;8.904;2023-04-29T01:16:24;99408.78;;;11.98;100.00
60489;BME280;46331;49.252;8.904;2023-04-29T01:17:09;99409.38;;;12.00;100.00
60489;BME280;46331;49.252;8.904;2023-04-29T01:18:04;99417.63;;;12.04;100.00
60489;BME280;46331;49.252;8.904;2023-04-29T01:18:56;99416.31;;;12.06;100.00
60489;BME280;46331;49.252;8.904;2023-04-29T01:19:49;99412.09;;;12.10;100.00
60489;BME280;46331;49.252;8.904;2023-04-29T01:20:31;99413.94;;;12.10;100.00
60489;BME280;46331;49.252;8.904;2023-04-29T01:21:13;99415.56;;;12.11;100.00
60489;BME280;46331;49.252;8.904;2023-04-29T01:21:54;99416.88;;;12.13;100.00
60489;BME280;46331;49.252;8.904;2023-04-29T01:22:34;99412.13;;;12.15;100.00
60489;BME280;46331;49.252;8.904;2023-04-29T01:23:15;99411.56;;;12.13;100.00
60489;BME280;46331;49.252;8.904;2023-04-29T01:23:56;99418.00;;;12.18;100.00
60489;BME280;46331;49.252;8.904;2023-04-29T01:24:39;99415.06;;;12.19;100.00
60489;BME280;46331;49.252;8.904;2023-04-29T01:25:20;99417.72;;;12.19;100.00
60489;BME280;46331;49.252;8.904;2023-04-29T01:26:17;99418.53;;;12.20;100.00
60489;BME280;46331;49.252;8.904;2023-04-29T01:28:53;99403.41;;;12.25;100.00
60489;BME280;46331;49.252;8.904;2023-04-29T01:29:40;99406.63;;;12.27;100.00
60489;BME280;46331;49.252;8.904;2023-04-29T01:30:49;99408.50;;;12.32;100.00
60489;BME280;46331;49.252;8.904;2023-04-29T01:31:37;99414.38;;;12.34;100.00
60489;BME280;46331;49.252;8.904;2023-04-29T01:32:54;99408.31;;;12.39;100.00
60489;BME280;46331;49.252;8.904;2023-04-29T01:35:00;99410.19;;;12.43;100.00
60489;BME280;46331;49.252;8.904;2023-04-29T01:36:52;99411.00;;;12.49;100.00
60489;BME280;46331;49.252;8.904;2023-04-29T01:37:47;99404.09;;;12.48;100.00
60489;BME280;46331;49.252;8.904;2023-04-29T01:39:32;99400.09;;;12.45;100.00
60489;BME280;46331;49.252;8.904;2023-04-29T01:40:37;99409.88;;;12.40;100.00
60489;BME280;46331;49.252;8.904;2023-04-29T01:41:51;99409.31;;;12.32;100.00
60489;BME280;46331;49.252;8.904;2023-04-29T01:42:43;99402.13;;;12.28;100.00
60489;BME280;46331;49.252;8.904;2023-04-29T01:43:29;99403.97;;;12.27;100.00
60489;BME280;46331;49.252;8.904;2023-04-29T01:44:23;99407.47;;;12.33;100.00
60489;BME280;46331;49.252;8.904;2023-04-29T01:45:09;99408.22;;;12.28;100.00
60489;BME280;46331;49.252;8.904;2023-04-29T01:45:52;99406.94;;;12.31;100.00
60489;BME280;46331;49.252;8.904;2023-04-29T01:46:34;99400.53;;;12.32;100.00
60489;BME280;46331;49.252;8.904;2023-04-29T01:47:15;99405.03;;;12.26;100.00
60489;BME280;46331;49.252;8.904;2023-04-29T01:48:03;99409.25;;;12.22;100.00
60489;BME280;46331;49.252;8.904;2023-04-29T01:48:45;99406.81;;;12.15;100.00
60489;BME280;46331;49.252;8.904;2023-04-29T01:49:26;99406.25;;;12.13;100.00
60489;BME280;46331;49.252;8.904;2023-04-29T01:50:07;99410.00;;;12.12;100.00
60489;BME280;46331;49.252;8.904;2023-04-29T01:50:49;99404.94;;;12.11;100.00
60489;BME280;46331;49.252;8.904;2023-04-29T01:51:30;99411.81;;;12.12;100.00
60489;BME280;46331;49.252;8.904;2023-04-29T01:52:13;99408.38;;;12.11;100.00
60489;BME280;46331;49.252;8.904;2023-04-29T01:52:56;99410.75;;;12.08;100.00
60489;BME280;46331;49.252;8.904;2023-04-29T01:53:36;99410.44;;;12.04;100.00
60489;BME280;46331;49.252;8.904;2023-04-29T01:54:20;99410.69;;;12.03;100.00
60489;BME280;46331;49.252;8.904;2023-04-29T01:55:02;99412.53;;;11.97;100.00
60489;BME280;46331;49.252;8.904;2023-04-29T01:55:52;99416.16;;;11.91;100.00
60489;BME280;46331;49.252;8.904;2023-04-29T01:56:36;99413.50;;;11.91;100.00
60489;BME280;46331;49.252;8.904;2023-04-29T01:57:39;99411.41;;;11.93;100.00
60489;BME280;46331;49.252;8.904;2023-04-29T01:58:32;99418.88;;;11.96;100.00
60489;BME280;46331;49.252;8.904;2023-04-29T01:59:31;99417.59;;;11.98;100.00
60489;BME280;46331;49.252;8.904;2023-04-29T02:00:31;99417.84;;;11.97;100.00
60489;BME280;46331;49.252;8.904;2023-04-29T02:01:11;99416.78;;;11.98;100.00
60489;BME280;46331;49.252;8.904;2023-04-29T02:01:52;99414.13;;;11.98;100.00
60489;BME280;46331;49.252;8.904;2023-04-29T02:02:33;99426.84;;;11.96;100.00
60489;BME280;46331;49.252;8.904;2023-04-29T02:03:24;99418.09;;;11.95;100.00
60489;BME280;46331;49.252;8.904;2023-04-29T02:04:08;99425.00;;;11.96;100.00
60489;BME280;46331;49.252;8.904;2023-04-29T02:04:50;99414.13;;;11.98;100.00
60489;BME280;46331;49.252;8.904;2023-04-29T02:05:30;99417.88;;;12.02;100.00
60489;BME280;46331;49.252;8.904;2023-04-29T02:06:14;99414.19;;;12.08;100.00
60489;BME280;46331;49.252;8.904;2023-04-29T02:06:55;99419.00;;;12.11;100.00
60489;BME280;46331;49.252;8.904;2023-04-29T02:07:35;99418.50;;;12.14;100.00
60489;BME280;46331;49.252;8.904;2023-04-29T02:08:16;99412.94;;;12.16;100.00
60489;BME280;46331;49.252;8.904;2023-04-29T02:08:59;99413.19;;;12.14;100.00
60489;BME280;46331;49.252;8.904;2023-04-29T02:09:39;99412.66;;;12.18;100.00
60489;BME280;46331;49.252;8.904;2023-04-29T02:10:24;99412.66;;;12.18;100.00
60489;BME280;46331;49.252;8.904;2023-04-29T02:11:13;99413.19;;;12.14;100.00
60489;BME280;46331;49.252;8.904;2023-04-29T02:11:55;99412.66;;;12.12;100.00
60489;BME280;46331;49.252;8.904;2023-04-29T02:12:36;99418.72;;;12.08;100.00
60489;BME280;46331;49.252;8.904;2023-04-29T02:13:16;99427.75;;;12.07;100.00
60489;BME280;46331;49.252;8.904;2023-04-29T02:13:57;99421.88;;;12.05;100.00
60489;BME280;46331;49.252;8.904;2023-04-29T02:14:38;99418.91;;;12.01;100.00
60489;BME280;46331;49.252;8.904;2023-04-29T02:15:19;99416.50;;;11.99;100.00
60489;BME280;46331;49.252;8.904;2023-04-29T02:16:11;99426.13;;;12.06;100.00
60489;BME280;46331;49.252;8.904;2023-04-29T02:16:55;99421.38;;;12.08;100.00
60489;BME280;46331;49.252;8.904;2023-04-29T02:17:36;99421.13;;;12.09;100.00
60489;BME280;46331;49.252;8.904;2023-04-29T02:18:17;99421.13;;;12.09;100.00
60489;BME280;46331;49.252;8.904;2023-04-29T02:18:57;99428.84;;;12.11;100.00
60489;BME280;46331;49.252;8.904;2023-04-29T02:19:38;99424.84;;;12.13;100.00
60489;BME280;46331;49.252;8.904;2023-04-29T02:20:18;99424.56;;;12.10;100.00
60489;BME280;46331;49.252;8.904;2023-04-29T02:20:59;99423.03;;;12.14;100.00
60489;BME280;46331;49.252;8.904;2023-04-29T02:21:41;99424.91;;;12.19;100.00
60489;BME280;46331;49.252;8.904;2023-04-29T02:22:22;99425.97;;;12.18;100.00
60489;BME280;46331;49.252;8.904;2023-04-29T02:23:02;99424.91;;;12.19;100.00
60489;BME280;46331;49.252;8.904;2023-04-29T02:23:43;99424.91;;;12.19;100.00
60489;BME280;46331;49.252;8.904;2023-04-29T02:24:23;99427.53;;;12.13;100.00
60489;BME280;46331;49.252;8.904;2023-04-29T02:25:04;99429.38;;;12.13;100.00
60489;BME280;46331;49.252;8.904;2023-04-29T02:25:46;99424.34;;;12.16;100.00
60489;BME280;46331;49.252;8.904;2023-04-29T02:26:27;99426.22;;;12.16;100.00
60489;BME280;46331;49.252;8.904;2023-04-29T02:27:09;99432.31;;;12.16;100.00
60489;BME280;46331;49.252;8.904;2023-04-29T02:27:50;99427.00;;;12.16;100.00
60489;BME280;46331;49.252;8.904;2023-04-29T02:28:31;99425.44;;;12.15;100.00
60489;BME280;46331;49.252;8.904;2023-04-29T02:29:12;99426.19;;;12.11;100.00
60489;BME280;46331;49.252;8.904;2023-04-29T02:29:53;99432.22;;;12.01;100.00
60489;BME280;46331;49.252;8.904;2023-04-29T02:30:33;99427.97;;;12.00;100.00
60489;BME280;46331;49.252;8.904;2023-04-29T02:31:14;99430.63;;;12.00;100.00
60489;BME280;46331;49.252;8.904;2023-04-29T02:31:58;99438.00;;;11.93;100.00
60489;BME280;46331;49.252;8.904;2023-04-29T02:32:38;99440.41;;;11.94;100.00
60489;BME280;46331;49.252;8.904;2023-04-29T02:33:19;99434.84;;;11.96;100.00
60489;BME280;46331;49.252;8.904;2023-04-29T02:34:00;99439.09;;;11.97;100.00
60489;BME280;46331;49.252;8.904;2023-04-29T02:34:41;99436.19;;;11.98;100.00
60489;BME280;46331;49.252;8.904;2023-04-29T02:35:21;99445.25;;;12.03;100.00
60489;BME280;46331;49.252;8.904;2023-04-29T02:36:02;99435.19;;;12.05;100.00
60489;BME280;46331;49.252;8.904;2023-04-29T02:36:42;99442.91;;;12.06;100.00
60489;BME280;46331;49.252;8.904;2023-04-29T02:37:23;99443.69;;;12.07;100.00
60489;BME280;46331;49.252;8.904;2023-04-29T02:38:03;99431.69;;;12.04;100.00
60489;BME280;46331;49.252;8.904;2023-04-29T02:38:44;99436.50;;;12.07;100.00
60489;BME280;46331;49.252;8.904;2023-04-29T02:39:24;99435.19;;;12.05;100.00
60489;BME280;46331;49.252;8.904;2023-04-29T02:40:08;99434.66;;;12.08;100.00
60489;BME280;46331;49.252;8.904;2023-04-29T02:40:49;99439.16;;;12.07;100.00
60489;BME280;46331;49.252;8.904;2023-04-29T02:41:30;99434.41;;;12.09;100.00
60489;BME280;46331;49.252;8.904;2023-04-29T02:42:11;99443.97;;;12.10;100.00
60489;BME280;46331;49.252;8.904;2023-04-29T02:42:52;99441.56;;;12.09;100.00
60489;BME280;46331;49.252;8.904;2023-04-29T02:43:33;99432.56;;;12.10;100.00
60489;BME280;46331;49.252;8.904;2023-04-29T02:44:13;99437.06;;;12.09;100.00
60489;BME280;46331;49.252;8.904;2023-04-29T02:44:54;99440.81;;;12.13;100.00
60489;BME280;46331;49.252;8.904;2023-04-29T02:45:35;99437.34;;;12.13;100.00
60489;BME280;46331;49.252;8.904;2023-04-29T02:46:16;99435.47;;;12.08;100.00
60489;BME280;46331;49.252;8.904;2023-04-29T02:46:57;99436.50;;;12.07;100.00
60489;BME280;46331;49.252;8.904;2023-04-29T02:47:38;99438.88;;;12.04;100.00
60489;BME280;46331;49.252;8.904;2023-04-29T02:48:19;99437.00;;;12.04;100.00
60489;BME280;46331;49.252;8.904;2023-04-29T02:48:59;99432.78;;;12.03;100.00
60489;BME280;46331;49.252;8.904;2023-04-29T02:49:43;99434.88;;;12.01;100.00
60489;BME280;46331;49.252;8.904;2023-04-29T02:50:25;99430.88;;;11.98;100.00
60489;BME280;46331;49.252;8.904;2023-04-29T02:51:06;99435.34;;;11.93;100.00
60489;BME280;46331;49.252;8.904;2023-04-29T02:51:47;99433.16;;;11.90;100.00
60489;BME280;46331;49.252;8.904;2023-04-29T02:52:32;99442.44;;;11.87;100.00
60489;BME280;46331;49.252;8.904;2023-04-29T02:53:12;99436.81;;;11.84;100.00
60489;BME280;46331;49.252;8.904;2023-04-29T02:53:53;99433.38;;;11.83;100.00
60489;BME280;46331;49.252;8.904;2023-04-29T02:54:34;99442.91;;;11.79;100.00
60489;BME280;46331;49.252;8.904;2023-04-29T02:55:15;99438.88;;;11.76;100.00
60489;BME280;46331;49.252;8.904;2023-04-29T02:55:56;99438.88;;;11.76;100.00
60489;BME280;46331;49.252;8.904;2023-04-29T02:56:37;99440.19;;;11.74;100.00
60489;BME280;46331;49.252;8.904;2023-04-29T02:57:17;99452.13;;;11.71;100.00
60489;BME280;46331;49.252;8.904;2023-04-29T02:57:58;99442.28;;;11.72;100.00
60489;BME280;46331;49.252;8.904;2023-04-29T02:58:38;99441.50;;;11.71;100.00
60489;BME280;46331;49.252;8.904;2023-04-29T02:59:19;99443.91;;;11.73;100.00
60489;BME280;46331;49.252;8.904;2023-04-29T03:00:00;99445.50;;;11.74;100.00
60489;BME280;46331;49.252;8.904;2023-04-29T03:00:41;99434.88;;;11.74;100.00
60489;BME280;46331;49.252;8.904;2023-04-29T03:01:21;99440.75;;;11.76;100.00
60489;BME280;46331;49.252;8.904;2023-04-29T03:02:03;99439.44;;;11.78;100.00
60489;BME280;46331;49.252;8.904;2023-04-29T03:02:44;99443.69;;;11.79;100.00
60489;BME280;46331;49.252;8.904;2023-04-29T03:03:24;99442.13;;;11.84;100.00
60489;BME280;46331;49.252;8.904;2023-04-29T03:04:05;99445.34;;;11.86;100.00
60489;BME280;46331;49.252;8.904;2023-04-29T03:04:46;99444.28;;;11.87;100.00
60489;BME280;46331;49.252;8.904;2023-04-29T03:05:26;99442.16;;;11.89;100.00
60489;BME280;46331;49.252;8.904;2023-04-29T03:06:07;99438.47;;;11.90;100.00
60489;BME280;46331;49.252;8.904;2023-04-29T03:06:48;99441.91;;;11.90;100.00
60489;BME280;46331;49.252;8.904;2023-04-29T03:07:31;99440.09;;;11.91;100.00
60489;BME280;46331;49.252;8.904;2023-04-29T03:08:12;99443.53;;;11.91;100.00
60489;BME280;46331;49.252;8.904;2023-04-29T03:08:53;99445.72;;;11.94;100.00
60489;BME280;46331;49.252;8.904;2023-04-29T03:09:33;99442.28;;;11.94;100.00
60489;BME280;46331;49.252;8.904;2023-04-29T03:10:14;99437.75;;;11.94;100.00
60489;BME280;46331;49.252;8.904;2023-04-29T03:10:54;99438.00;;;11.93;100.00
60489;BME280;46331;49.252;8.904;2023-04-29T03:11:35;99445.47;;;11.96;100.00
60489;BME280;46331;49.252;8.904;2023-04-29T03:12:15;99440.94;;;11.96;100.00
60489;BME280;46331;49.252;8.904;2023-04-29T03:12:56;99446.25;;;11.96;100.00
60489;BME280;46331;49.252;8.904;2023-04-29T03:13:37;99437.75;;;11.94;100.00
60489;BME280;46331;49.252;8.904;2023-04-29T03:14:18;99440.66;;;11.93;100.00
60489;BME280;46331;49.252;8.904;2023-04-29T03:15:01;99440.09;;;11.91;100.00
60489;BME280;46331;49.252;8.904;2023-04-29T03:15:41;99439.25;;;11.90;100.00
60489;BME280;46331;49.252;8.904;2023-04-29T03:16:23;99446.19;;;11.91;100.00
60489;BME280;46331;49.252;8.904;2023-04-29T03:17:04;99443.78;;;11.90;100.00
60489;BME280;46331;49.252;8.904;2023-04-29T03:17:45;99441.66;;;11.92;100.00
60489;BME280;46331;49.252;8.904;2023-04-29T03:18:27;99437.22;;;11.92;100.00
60489;BME280;46331;49.252;8.904;2023-04-29T03:19:07;99436.69;;;11.95;100.00
60489;BME280;46331;49.252;8.904;2023-04-29T03:19:48;99440.16;;;11.96;100.00
60489;BME280;46331;49.252;8.904;2023-04-29T03:20:28;99445.47;;;11.96;100.00
60489;BME280;46331;49.252;8.904;2023-04-29T03:21:09;99434.59;;;11.97;100.00
60489;BME280;46331;49.252;8.904;2023-04-29T03:21:50;99438.03;;;11.98;100.00
60489;BME280;46331;49.252;8.904;2023-04-29T03:22:31;99442.84;;;12.01;100.00
60489;BME280;46331;49.252;8.904;2023-04-29T03:23:11;99439.69;;;12.04;100.00
60489;BME280;46331;49.252;8.904;2023-04-29T03:23:52;99446.34;;;12.07;100.00
60489;BME280;46331;49.252;8.904;2023-04-29T03:24:41;99442.41;;;12.09;100.00
60489;BME280;46331;49.252;8.904;2023-04-29T03:25:22;99445.59;;;12.11;100.00
60489;BME280;46331;49.252;8.904;2023-04-29T03:26:03;99444.53;;;12.12;100.00
60489;BME280;46331;49.252;8.904;2023-04-29T03:26:44;99444.53;;;12.12;100.00
60489;BME280;46331;49.252;8.904;2023-04-29T03:27:25;99445.34;;;12.13;100.00
60489;BME280;46331;49.252;8.904;2023-04-29T03:28:05;99447.75;;;12.14;100.00
60489;BME280;46331;49.252;8.904;2023-04-29T03:28:46;99442.41;;;12.14;100.00
60489;BME280;46331;49.252;8.904;2023-04-29T03:29:27;99445.38;;;12.18;100.00
60489;BME280;46331;49.252;8.904;2023-04-29T03:30:07;99446.97;;;12.19;100.00
60489;BME280;46331;49.252;8.904;2023-04-29T03:30:52;99448.59;;;12.20;100.00
60489;BME280;46331;49.252;8.904;2023-04-29T03:31:32;99447.25;;;12.23;100.00
60489;BME280;46331;49.252;8.904;2023-04-29T03:32:13;99445.69;;;12.27;100.00
60489;BME280;46331;49.252;8.904;2023-04-29T03:32:54;99447.06;;;12.29;100.00
60489;BME280;46331;49.252;8.904;2023-04-29T03:33:34;99450.50;;;12.30;100.00
60489;BME280;46331;49.252;8.904;2023-04-29T03:34:15;99441.22;;;12.32;100.00
60489;BME280;46331;49.252;8.904;2023-04-29T03:35:01;99448.97;;;12.34;100.00
60489;BME280;46331;49.252;8.904;2023-04-29T03:35:50;99443.91;;;12.38;100.00
60489;BME280;46331;49.252;8.904;2023-04-29T03:36:51;99443.66;;;12.39;100.00
60489;BME280;46331;49.252;8.904;2023-04-29T03:37:32;99451.38;;;12.41;100.00
60489;BME280;46331;49.252;8.904;2023-04-29T03:38:25;99445.81;;;12.42;100.00
60489;BME280;46331;49.252;8.904;2023-04-29T03:39:07;99440.50;;;12.42;100.00
60489;BME280;46331;49.252;8.904;2023-04-29T03:39:48;99447.41;;;12.43;100.00
60489;BME280;46331;49.252;8.904;2023-04-29T03:40:28;99445.84;;;12.47;100.00
60489;BME280;46331;49.252;8.904;2023-04-29T03:41:09;99448.50;;;12.47;100.00
60489;BME280;46331;49.252;8.904;2023-04-29T03:41:50;99440.00;;;12.50;100.00
60489;BME280;46331;49.252;8.904;2023-04-29T03:42:30;99448.81;;;12.51;100.00
60489;BME280;46331;49.252;8.904;2023-04-29T03:43:11;99453.31;;;12.50;100.00
60489;BME280;46331;49.252;8.904;2023-04-29T03:43:53;99443.22;;;12.52;100.00
60489;BME280;46331;49.252;8.904;2023-04-29T03:44:34;99440.56;;;12.52;100.00
60489;BME280;46331;49.252;8.904;2023-04-29T03:45:14;99439.50;;;12.53;100.00
60489;BME280;46331;49.252;8.904;2023-04-29T03:45:55;99446.41;;;12.55;100.00
60489;BME280;46331;49.252;8.904;2023-04-29T03:46:37;99449.88;;;12.55;100.00
60489;BME280;46331;49.252;8.904;2023-04-29T03:47:18;99447.97;;;12.50;100.00
60489;BME280;46331;49.252;8.904;2023-04-29T03:47:59;99445.03;;;12.47;100.00
60489;BME280;46331;49.252;8.904;2023-04-29T03:48:40;99450.09;;;12.48;100.00
60489;BME280;46331;49.252;8.904;2023-04-29T03:49:21;99450.91;;;12.49;100.00
60489;BME280;46331;49.252;8.904;2023-04-29T03:50:03;99448.50;;;12.47;100.00
60489;BME280;46331;49.252;8.904;2023-04-29T03:50:44;99455.16;;;12.45;100.00
60489;BME280;46331;49.252;8.904;2023-04-29T03:51:25;99455.34;;;12.38;100.00
60489;BME280;46331;49.252;8.904;2023-04-29T03:52:10;99451.06;;;12.32;100.00